Impacts TAF Board
For situational awareness. Not to be used for flight planning purposes.
IDs:

KSFO - San Francisco Intl, CA, US

Issued at 1121 UTC 21 Sep 2018
Updated at 1127 UTC 21 Sep 2018
Potential Impact None Slight Moderate High
Time1056Z 21/12Z 21/13Z 21/14Z 21/15Z 21/16Z 21/17Z 21/18Z 21/19Z 21/20Z 21/21Z 21/22Z 21/23Z 22/00Z>>
Type OBS PRVL PRVL PRVL PRVL PRVL PRVL PRVL PRVL PRVL PRVL PRVL PRVL PRVL
VIS 10 >6 >6 >6 >6 >6 >6 >6 >6 >6 >6 >6 >6 >6
CIG -- -- -- -- -- -- -- -- -- -- -- -- -- --
Cover CLR SKC SKC SKC SKC SKC SKC SKC SKC SKC SKC SKC SKC SKC
FltCat VFR VFR VFR VFR VFR VFR VFR VFR VFR VFR VFR VFR VFR VFR
WX -- -- -- -- -- -- -- -- -- -- -- -- -- --
WDir 270 VRB VRB VRB VRB VRB 340 340 340 340 340 280 280 280
WSpd 4 3 3 3 3 3 4 4 4 4 4 15 15 15
WGst -- -- -- -- -- -- -- -- -- -- -- -- -- --
Raw TAF
KSFO 211121Z 2112/2218 VRB03KT P6SM SKC
  FM211700 34004KT P6SM SKC
  FM212200 28015KT P6SM SKC
  FM220400 26008KT P6SM SKC
  FM221200 03004KT P6SM SKC


Raw METAR
KSFO 211056Z 27004KT 10SM CLR 14/07 A2987 RMK AO2 SLP116 T01440067
KSFO 210956Z 27004KT 10SM CLR 14/06 A2987 RMK AO2 SLP115 T01440061
KSFO 210856Z 29003KT 10SM CLR 16/09 A2987 RMK AO2 SLP114 T01610089 50002

METAR Board
Radar Display
Forecast Discussion
For situational awareness. Not to be used for flight planning purposes.